sensor_id;sensor_type;location;lat;lon;timestamp;temperature;humidity
77218;DHT22;66214;51.302;17.068;2024-03-08T00:01:35;-0.19;74.13
77218;DHT22;66214;51.302;17.068;2024-03-08T00:04:13;-0.19;74.56
77218;DHT22;66214;51.302;17.068;2024-03-08T00:07:01;-0.19;75.05
77218;DHT22;66214;51.302;17.068;2024-03-08T00:09:50;-0.16;75.45
77218;DHT22;66214;51.302;17.068;2024-03-08T00:12:19;-0.11;75.80
77218;DHT22;66214;51.302;17.068;2024-03-08T00:14:56;-0.09;75.86
77218;DHT22;66214;51.302;17.068;2024-03-08T00:17:30;-0.07;75.64
77218;DHT22;66214;51.302;17.068;2024-03-08T00:20:11;-0.05;75.38
77218;DHT22;66214;51.302;17.068;2024-03-08T00:23:02;-0.06;75.23
77218;DHT22;66214;51.302;17.068;2024-03-08T00:25:58;-0.10;75.08
77218;DHT22;66214;51.302;17.068;2024-03-08T00:28:26;-0.15;75.06
77218;DHT22;66214;51.302;17.068;2024-03-08T00:30:59;-0.19;74.96
77218;DHT22;66214;51.302;17.068;2024-03-08T00:33:30;-0.24;74.80
77218;DHT22;66214;51.302;17.068;2024-03-08T00:36:25;-0.29;74.77
77218;DHT22;66214;51.302;17.068;2024-03-08T00:39:05;-0.33;75.02
77218;DHT22;66214;51.302;17.068;2024-03-08T00:44:27;-0.34;75.97
77218;DHT22;66214;51.302;17.068;2024-03-08T00:47:26;-0.30;76.62
77218;DHT22;66214;51.302;17.068;2024-03-08T00:50:13;-0.23;76.66
77218;DHT22;66214;51.302;17.068;2024-03-08T00:53:14;-0.17;76.33
77218;DHT22;66214;51.302;17.068;2024-03-08T00:55:42;-0.14;76.12
77218;DHT22;66214;51.302;17.068;2024-03-08T00:58:36;-0.11;75.93
77218;DHT22;66214;51.302;17.068;2024-03-08T01:01:10;-0.10;75.83
77218;DHT22;66214;51.302;17.068;2024-03-08T01:03:45;-0.10;75.81
77218;DHT22;66214;51.302;17.068;2024-03-08T01:06:14;-0.11;75.80
77218;DHT22;66214;51.302;17.068;2024-03-08T01:12:29;-0.17;75.80
77218;DHT22;66214;51.302;17.068;2024-03-08T01:15:05;-0.21;75.70
77218;DHT22;66214;51.302;17.068;2024-03-08T01:17:51;-0.25;75.76
77218;DHT22;66214;51.302;17.068;2024-03-08T01:20:30;-0.28;76.03
77218;DHT22;66214;51.302;17.068;2024-03-08T01:26:18;-0.29;77.07
77218;DHT22;66214;51.302;17.068;2024-03-08T01:29:09;-0.23;77.01
77218;DHT22;66214;51.302;17.068;2024-03-08T01:31:53;-0.18;76.76
77218;DHT22;66214;51.302;17.068;2024-03-08T01:34:33;-0.14;76.41
77218;DHT22;66214;51.302;17.068;2024-03-08T01:37:04;-0.15;76.11
77218;DHT22;66214;51.302;17.068;2024-03-08T01:40:09;-0.17;75.86
77218;DHT22;66214;51.302;17.068;2024-03-08T01:43:12;-0.22;75.70
77218;DHT22;66214;51.302;17.068;2024-03-08T01:46:22;-0.25;75.57
77218;DHT22;66214;51.302;17.068;2024-03-08T01:49:03;-0.28;75.49
77218;DHT22;66214;51.302;17.068;2024-03-08T01:52:07;-0.32;75.39
77218;DHT22;66214;51.302;17.068;2024-03-08T01:54:40;-0.34;75.34
77218;DHT22;66214;51.302;17.068;2024-03-08T01:57:27;-0.35;75.47
77218;DHT22;66214;51.302;17.068;2024-03-08T02:00:20;-0.35;75.83
77218;DHT22;66214;51.302;17.068;2024-03-08T02:02:49;-0.33;76.27
77218;DHT22;66214;51.302;17.068;2024-03-08T02:05:22;-0.30;76.48
77218;DHT22;66214;51.302;17.068;2024-03-08T02:08:13;-0.26;76.35
77218;DHT22;66214;51.302;17.068;2024-03-08T02:11:06;-0.24;76.01
77218;DHT22;66214;51.302;17.068;2024-03-08T02:13:37;-0.21;75.64
77218;DHT22;66214;51.302;17.068;2024-03-08T02:16:13;-0.20;75.34
77218;DHT22;66214;51.302;17.068;2024-03-08T02:19:13;-0.24;75.08
77218;DHT22;66214;51.302;17.068;2024-03-08T02:22:06;-0.29;74.83
77218;DHT22;66214;51.302;17.068;2024-03-08T02:24:37;-0.34;74.69
77218;DHT22;66214;51.302;17.068;2024-03-08T02:27:33;-0.40;74.60
77218;DHT22;66214;51.302;17.068;2024-03-08T02:30:05;-0.44;74.52
77218;DHT22;66214;51.302;17.068;2024-03-08T02:32:45;-0.48;74.42
77218;DHT22;66214;51.302;17.068;2024-03-08T02:35:15;-0.52;74.38
77218;DHT22;66214;51.302;17.068;2024-03-08T02:38:03;-0.54;74.38
77218;DHT22;66214;51.302;17.068;2024-03-08T02:41:04;-0.54;74.86
77218;DHT22;66214;51.302;17.068;2024-03-08T02:43:38;-0.52;74.80
77218;DHT22;66214;51.302;17.068;2024-03-08T02:46:45;-0.51;75.02
77218;DHT22;66214;51.302;17.068;2024-03-08T02:49:40;-0.52;75.49
77218;DHT22;66214;51.302;17.068;2024-03-08T02:52:28;-0.50;75.83
77218;DHT22;66214;51.302;17.068;2024-03-08T02:54:59;-0.48;76.10
77218;DHT22;66214;51.302;17.068;2024-03-08T02:57:46;-0.47;76.10
77218;DHT22;66214;51.302;17.068;2024-03-08T03:00:28;-0.48;75.92
77218;DHT22;66214;51.302;17.068;2024-03-08T03:03:01;-0.49;75.68
77218;DHT22;66214;51.302;17.068;2024-03-08T03:05:41;-0.54;75.49
77218;DHT22;66214;51.302;17.068;2024-03-08T03:08:13;-0.58;75.63
77218;DHT22;66214;51.302;17.068;2024-03-08T03:11:03;-0.63;75.38
77218;DHT22;66214;51.302;17.068;2024-03-08T03:13:35;-0.69;75.50
77218;DHT22;66214;51.302;17.068;2024-03-08T03:16:03;-0.73;75.42
77218;DHT22;66214;51.302;17.068;2024-03-08T03:19:02;-0.79;75.48
77218;DHT22;66214;51.302;17.068;2024-03-08T03:21:48;-0.83;75.47
77218;DHT22;66214;51.302;17.068;2024-03-08T03:24:44;-0.88;75.47
77218;DHT22;66214;51.302;17.068;2024-03-08T03:27:25;-0.90;75.87
77218;DHT22;66214;51.302;17.068;2024-03-08T03:29:57;-0.90;76.03
77218;DHT22;66214;51.302;17.068;2024-03-08T03:33:05;-0.92;76.23
77218;DHT22;66214;51.302;17.068;2024-03-08T03:35:49;-0.93;76.61
77218;DHT22;66214;51.302;17.068;2024-03-08T03:38:25;-0.93;76.91
77218;DHT22;66214;51.302;17.068;2024-03-08T03:40:56;-0.92;76.91
77218;DHT22;66214;51.302;17.068;2024-03-08T03:43:36;-0.94;76.71
77218;DHT22;66214;51.302;17.068;2024-03-08T03:46:17;-0.97;76.49
77218;DHT22;66214;51.302;17.068;2024-03-08T03:48:48;-1.02;76.35
77218;DHT22;66214;51.302;17.068;2024-03-08T03:51:25;-1.05;76.44
77218;DHT22;66214;51.302;17.068;2024-03-08T03:54:44;-1.11;76.29
77218;DHT22;66214;51.302;17.068;2024-03-08T03:57:27;-1.17;76.13
77218;DHT22;66214;51.302;17.068;2024-03-08T03:59:57;-1.23;76.06
77218;DHT22;66214;51.302;17.068;2024-03-08T04:02:28;-1.30;75.94
77218;DHT22;66214;51.302;17.068;2024-03-08T04:05:01;-1.37;75.96
77218;DHT22;66214;51.302;17.068;2024-03-08T04:07:30;-1.42;75.87
77218;DHT22;66214;51.302;17.068;2024-03-08T04:10:16;-1.46;76.14
77218;DHT22;66214;51.302;17.068;2024-03-08T04:12:45;-1.47;76.72
77218;DHT22;66214;51.302;17.068;2024-03-08T04:15:27;-1.44;77.15
77218;DHT22;66214;51.302;17.068;2024-03-08T04:18:08;-1.41;77.41
77218;DHT22;66214;51.302;17.068;2024-03-08T04:20:38;-1.37;77.72
77218;DHT22;66214;51.302;17.068;2024-03-08T04:23:12;-1.33;78.00
77218;DHT22;66214;51.302;17.068;2024-03-08T04:25:49;-1.30;77.96
77218;DHT22;66214;51.302;17.068;2024-03-08T04:28:19;-1.28;77.82
77218;DHT22;66214;51.302;17.068;2024-03-08T04:30:50;-1.28;77.68
77218;DHT22;66214;51.302;17.068;2024-03-08T04:34:08;-1.30;77.72
77218;DHT22;66214;51.302;17.068;2024-03-08T04:36:52;-1.31;77.47
77218;DHT22;66214;51.302;17.068;2024-03-08T04:39:28;-1.35;77.38
77218;DHT22;66214;51.302;17.068;2024-03-08T04:42:02;-1.39;77.37
77218;DHT22;66214;51.302;17.068;2024-03-08T04:44:41;-1.44;77.37
77218;DHT22;66214;51.302;17.068;2024-03-08T04:47:14;-1.48;77.19
77218;DHT22;66214;51.302;17.068;2024-03-08T04:49:52;-1.53;77.14
77218;DHT22;66214;51.302;17.068;2024-03-08T04:52:27;-1.57;77.22
77218;DHT22;66214;51.302;17.068;2024-03-08T04:55:03;-1.59;77.48
77218;DHT22;66214;51.302;17.068;2024-03-08T04:57:43;-1.60;77.85
77218;DHT22;66214;51.302;17.068;2024-03-08T05:00:19;-1.59;78.24
77218;DHT22;66214;51.302;17.068;2024-03-08T05:04:15;-1.56;79.07
77218;DHT22;66214;51.302;17.068;2024-03-08T05:06:42;-1.51;78.88
77218;DHT22;66214;51.302;17.068;2024-03-08T05:09:30;-1.51;78.68
77218;DHT22;66214;51.302;17.068;2024-03-08T05:12:38;-1.51;78.44
77218;DHT22;66214;51.302;17.068;2024-03-08T05:15:12;-1.51;78.24
77218;DHT22;66214;51.302;17.068;2024-03-08T05:17:58;-1.54;78.12
77218;DHT22;66214;51.302;17.068;2024-03-08T05:20:49;-1.57;78.10
77218;DHT22;66214;51.302;17.068;2024-03-08T05:23:18;-1.61;78.01
77218;DHT22;66214;51.302;17.068;2024-03-08T05:26:03;-1.64;78.00
77218;DHT22;66214;51.302;17.068;2024-03-08T05:28:38;-1.68;77.93
77218;DHT22;66214;51.302;17.068;2024-03-08T05:31:22;-1.68;78.21
77218;DHT22;66214;51.302;17.068;2024-03-08T05:33:52;-1.65;78.59
77218;DHT22;66214;51.302;17.068;2024-03-08T05:36:24;-1.61;78.75
77218;DHT22;66214;51.302;17.068;2024-03-08T05:39:15;-1.58;78.97
77218;DHT22;66214;51.302;17.068;2024-03-08T05:41:52;-1.54;79.24
77218;DHT22;66214;51.302;17.068;2024-03-08T05:44:33;-1.48;79.62
77218;DHT22;66214;51.302;17.068;2024-03-08T05:47:00;-1.44;79.69
77218;DHT22;66214;51.302;17.068;2024-03-08T05:50:12;-1.40;79.59
77218;DHT22;66214;51.302;17.068;2024-03-08T05:53:14;-1.38;79.46
77218;DHT22;66214;51.302;17.068;2024-03-08T05:55:44;-1.35;79.37
77218;DHT22;66214;51.302;17.068;2024-03-08T05:58:38;-1.33;79.19
77218;DHT22;66214;51.302;17.068;2024-03-08T06:01:14;-1.34;79.01
77218;DHT22;66214;51.302;17.068;2024-03-08T06:03:47;-1.32;78.91
77218;DHT22;66214;51.302;17.068;2024-03-08T06:06:23;-1.31;78.79
77218;DHT22;66214;51.302;17.068;2024-03-08T06:09:18;-1.28;78.78
77218;DHT22;66214;51.302;17.068;2024-03-08T06:12:09;-1.22;78.92
77218;DHT22;66214;51.302;17.068;2024-03-08T06:14:40;-1.14;79.26
77218;DHT22;66214;51.302;17.068;2024-03-08T06:17:09;-1.06;79.47
77218;DHT22;66214;51.302;17.068;2024-03-08T06:20:18;-0.97;79.76
77218;DHT22;66214;51.302;17.068;2024-03-08T06:22:53;-0.85;79.99
77218;DHT22;66214;51.302;17.068;2024-03-08T06:25:43;-0.76;80.23
77218;DHT22;66214;51.302;17.068;2024-03-08T06:28:18;-0.67;80.16
77218;DHT22;66214;51.302;17.068;2024-03-08T06:30:53;-0.60;79.93
77218;DHT22;66214;51.302;17.068;2024-03-08T06:33:43;-0.53;79.67
77218;DHT22;66214;51.302;17.068;2024-03-08T06:36:27;-0.45;79.76
77218;DHT22;66214;51.302;17.068;2024-03-08T06:39:00;-0.38;79.69
77218;DHT22;66214;51.302;17.068;2024-03-08T06:41:27;-0.29;79.66
77218;DHT22;66214;51.302;17.068;2024-03-08T06:44:32;-0.19;79.65
77218;DHT22;66214;51.302;17.068;2024-03-08T06:47:07;-0.10;79.77
77218;DHT22;66214;51.302;17.068;2024-03-08T06:49:37;-0.03;79.83
77218;DHT22;66214;51.302;17.068;2024-03-08T06:52:04;0.01;79.65
77218;DHT22;66214;51.302;17.068;2024-03-08T06:55:15;0.06;79.49
77218;DHT22;66214;51.302;17.068;2024-03-08T06:57:46;0.11;79.36
77218;DHT22;66214;51.302;17.068;2024-03-08T07:01:01;0.17;79.18
77218;DHT22;66214;51.302;17.068;2024-03-08T07:03:43;0.21;79.19
77218;DHT22;66214;51.302;17.068;2024-03-08T07:09:38;0.34;79.26
77218;DHT22;66214;51.302;17.068;2024-03-08T07:12:09;0.40;79.40
77218;DHT22;66214;51.302;17.068;2024-03-08T07:14:42;0.46;79.24
77218;DHT22;66214;51.302;17.068;2024-03-08T07:17:33;0.48;79.08
77218;DHT22;66214;51.302;17.068;2024-03-08T07:20:21;0.48;79.04
77218;DHT22;66214;51.302;17.068;2024-03-08T07:22:55;0.50;79.03
77218;DHT22;66214;51.302;17.068;2024-03-08T07:25:56;0.56;79.11
77218;DHT22;66214;51.302;17.068;2024-03-08T07:28:57;0.65;79.19
77218;DHT22;66214;51.302;17.068;2024-03-08T07:32:13;0.77;79.23
77218;DHT22;66214;51.302;17.068;2024-03-08T07:34:57;0.85;79.05
77218;DHT22;66214;51.302;17.068;2024-03-08T07:41:50;1.04;78.64
77218;DHT22;66214;51.302;17.068;2024-03-08T07:48:04;1.14;78.63
77218;DHT22;66214;51.302;17.068;2024-03-08T07:51:13;1.20;78.62
77218;DHT22;66214;51.302;17.068;2024-03-08T07:53:51;1.30;78.73
77218;DHT22;66214;51.302;17.068;2024-03-08T07:56:32;1.38;78.64
77218;DHT22;66214;51.302;17.068;2024-03-08T07:59:06;1.44;78.47
77218;DHT22;66214;51.302;17.068;2024-03-08T08:03:58;1.49;78.13
77218;DHT22;66214;51.302;17.068;2024-03-08T08:06:30;1.53;77.80
77218;DHT22;66214;51.302;17.068;2024-03-08T08:09:05;1.57;77.61
77218;DHT22;66214;51.302;17.068;2024-03-08T08:11:35;1.61;77.55
77218;DHT22;66214;51.302;17.068;2024-03-08T08:14:05;1.66;77.42
77218;DHT22;66214;51.302;17.068;2024-03-08T08:16:38;1.72;77.37
77218;DHT22;66214;51.302;17.068;2024-03-08T08:19:10;1.78;77.52
77218;DHT22;66214;51.302;17.068;2024-03-08T08:21:48;1.86;77.49
77218;DHT22;66214;51.302;17.068;2024-03-08T08:24:17;1.95;77.40
77218;DHT22;66214;51.302;17.068;2024-03-08T08:26:48;2.02;77.09
77218;DHT22;66214;51.302;17.068;2024-03-08T08:29:17;2.06;76.66
77218;DHT22;66214;51.302;17.068;2024-03-08T08:31:49;2.18;76.71
77218;DHT22;66214;51.302;17.068;2024-03-08T08:34:20;2.29;76.48
77218;DHT22;66214;51.302;17.068;2024-03-08T08:36:53;2.40;76.40
77218;DHT22;66214;51.302;17.068;2024-03-08T08:39:22;2.52;76.28
77218;DHT22;66214;51.302;17.068;2024-03-08T08:41:54;2.65;76.29
77218;DHT22;66214;51.302;17.068;2024-03-08T08:44:28;2.80;76.01
77218;DHT22;66214;51.302;17.068;2024-03-08T08:47:01;2.92;75.69
77218;DHT22;66214;51.302;17.068;2024-03-08T08:49:39;3.06;75.33
77218;DHT22;66214;51.302;17.068;2024-03-08T08:52:13;3.20;74.87
77218;DHT22;66214;51.302;17.068;2024-03-08T08:54:45;3.31;74.20
77218;DHT22;66214;51.302;17.068;2024-03-08T08:57:16;3.40;74.06
77218;DHT22;66214;51.302;17.068;2024-03-08T08:59:46;3.49;73.55
77218;DHT22;66214;51.302;17.068;2024-03-08T09:02:17;3.64;73.61
77218;DHT22;66214;51.302;17.068;2024-03-08T09:04:50;3.75;72.88
77218;DHT22;66214;51.302;17.068;2024-03-08T09:07:20;3.85;72.84
77218;DHT22;66214;51.302;17.068;2024-03-08T09:09:50;3.99;72.67
77218;DHT22;66214;51.302;17.068;2024-03-08T09:12:21;4.11;71.88
77218;DHT22;66214;51.302;17.068;2024-03-08T09:14:50;4.19;71.21
77218;DHT22;66214;51.302;17.068;2024-03-08T09:17:21;4.28;71.40
77218;DHT22;66214;51.302;17.068;2024-03-08T09:19:50;4.41;71.29
77218;DHT22;66214;51.302;17.068;2024-03-08T09:22:28;4.52;70.90
77218;DHT22;66214;51.302;17.068;2024-03-08T09:25:05;4.65;70.81
77218;DHT22;66214;51.302;17.068;2024-03-08T09:27:44;4.87;71.07
77218;DHT22;66214;51.302;17.068;2024-03-08T09:30:19;5.03;69.68
77218;DHT22;66214;51.302;17.068;2024-03-08T09:32:49;5.13;69.22
77218;DHT22;66214;51.302;17.068;2024-03-08T09:35:22;5.23;69.30
77218;DHT22;66214;51.302;17.068;2024-03-08T09:37:52;5.40;68.66
77218;DHT22;66214;51.302;17.068;2024-03-08T09:40:31;5.53;68.83
77218;DHT22;66214;51.302;17.068;2024-03-08T09:43:06;5.72;68.63
77218;DHT22;66214;51.302;17.068;2024-03-08T09:45:40;5.91;68.23
77218;DHT22;66214;51.302;17.068;2024-03-08T09:48:15;5.99;67.24
77218;DHT22;66214;51.302;17.068;2024-03-08T09:51:36;5.99;65.27
77218;DHT22;66214;51.302;17.068;2024-03-08T09:54:25;5.96;65.57
77218;DHT22;66214;51.302;17.068;2024-03-08T09:57:27;6.01;65.66
77218;DHT22;66214;51.302;17.068;2024-03-08T10:03:00;8.14;61.37
77218;DHT22;66214;51.302;17.068;2024-03-08T10:06:26;9.04;57.84
77218;DHT22;66214;51.302;17.068;2024-03-08T10:09:13;9.87;58.57
77218;DHT22;66214;51.302;17.068;2024-03-08T10:12:07;10.67;58.78
77218;DHT22;66214;51.302;17.068;2024-03-08T10:14:50;11.43;57.41
77218;DHT22;66214;51.302;17.068;2024-03-08T10:17:22;12.00;56.81
77218;DHT22;66214;51.302;17.068;2024-03-08T10:19:54;12.35;54.99
77218;DHT22;66214;51.302;17.068;2024-03-08T10:22:31;12.78;56.63
77218;DHT22;66214;51.302;17.068;2024-03-08T10:24:59;13.38;55.43
77218;DHT22;66214;51.302;17.068;2024-03-08T10:27:29;13.86;53.33
77218;DHT22;66214;51.302;17.068;2024-03-08T10:29:58;14.12;51.45
77218;DHT22;66214;51.302;17.068;2024-03-08T10:32:26;14.13;50.66
77218;DHT22;66214;51.302;17.068;2024-03-08T10:34:56;14.22;49.79
77218;DHT22;66214;51.302;17.068;2024-03-08T10:37:25;14.35;49.14
77218;DHT22;66214;51.302;17.068;2024-03-08T10:51:01;15.85;48.39
77218;DHT22;66214;51.302;17.068;2024-03-08T10:53:35;16.47;47.56
77218;DHT22;66214;51.302;17.068;2024-03-08T10:56:07;16.70;42.67
77218;DHT22;66214;51.302;17.068;2024-03-08T10:58:40;16.59;41.68
77218;DHT22;66214;51.302;17.068;2024-03-08T11:03:58;16.64;41.94
77218;DHT22;66214;51.302;17.068;2024-03-08T11:18:23;17.95;39.51
77218;DHT22;66214;51.302;17.068;2024-03-08T11:20:54;17.84;37.01
77218;DHT22;66214;51.302;17.068;2024-03-08T11:23:24;17.78;36.23
77218;DHT22;66214;51.302;17.068;2024-03-08T11:25:54;17.56;36.30
77218;DHT22;66214;51.302;17.068;2024-03-08T11:28:23;17.75;35.75
77218;DHT22;66214;51.302;17.068;2024-03-08T11:33:30;17.90;34.88
77218;DHT22;66214;51.302;17.068;2024-03-08T11:36:07;18.02;35.95
77218;DHT22;66214;51.302;17.068;2024-03-08T11:39:03;17.76;32.10
77218;DHT22;66214;51.302;17.068;2024-03-08T11:41:54;17.51;33.77
77218;DHT22;66214;51.302;17.068;2024-03-08T11:44:26;17.52;34.44
77218;DHT22;66214;51.302;17.068;2024-03-08T11:50:43;17.91;34.09
77218;DHT22;66214;51.302;17.068;2024-03-08T11:53:40;17.97;32.42
77218;DHT22;66214;51.302;17.068;2024-03-08T11:56:51;17.69;32.80
77218;DHT22;66214;51.302;17.068;2024-03-08T12:00:02;17.93;32.97
77218;DHT22;66214;51.302;17.068;2024-03-08T12:06:39;18.61;32.31
77218;DHT22;66214;51.302;17.068;2024-03-08T12:09:30;18.34;31.08
77218;DHT22;66214;51.302;17.068;2024-03-08T12:11:58;18.43;31.42
77218;DHT22;66214;51.302;17.068;2024-03-08T12:15:03;18.26;30.46
77218;DHT22;66214;51.302;17.068;2024-03-08T12:17:54;18.33;30.57
77218;DHT22;66214;51.302;17.068;2024-03-08T12:20:44;18.51;31.43
77218;DHT22;66214;51.302;17.068;2024-03-08T12:23:35;18.46;30.41
77218;DHT22;66214;51.302;17.068;2024-03-08T12:26:38;18.57;31.48
77218;DHT22;66214;51.302;17.068;2024-03-08T12:29:37;19.02;31.84
77218;DHT22;66214;51.302;17.068;2024-03-08T12:36:05;19.21;31.20
77218;DHT22;66214;51.302;17.068;2024-03-08T12:39:40;19.62;30.09
77218;DHT22;66214;51.302;17.068;2024-03-08T12:46:32;19.54;30.06
77218;DHT22;66214;51.302;17.068;2024-03-08T12:49:20;19.68;30.31
77218;DHT22;66214;51.302;17.068;2024-03-08T12:52:03;19.93;29.89
77218;DHT22;66214;51.302;17.068;2024-03-08T12:54:54;20.44;29.79
77218;DHT22;66214;51.302;17.068;2024-03-08T12:57:51;20.63;29.55
77218;DHT22;66214;51.302;17.068;2024-03-08T13:00:38;20.64;29.12
77218;DHT22;66214;51.302;17.068;2024-03-08T13:03:11;20.73;28.74
77218;DHT22;66214;51.302;17.068;2024-03-08T13:06:06;20.95;29.80
77218;DHT22;66214;51.302;17.068;2024-03-08T13:08:40;20.69;28.42
77218;DHT22;66214;51.302;17.068;2024-03-08T13:11:10;20.77;29.10
77218;DHT22;66214;51.302;17.068;2024-03-08T13:13:40;20.68;28.63
77218;DHT22;66214;51.302;17.068;2024-03-08T13:16:11;20.78;29.17
77218;DHT22;66214;51.302;17.068;2024-03-08T13:18:43;21.05;28.66
77218;DHT22;66214;51.302;17.068;2024-03-08T13:21:14;21.04;28.47
77218;DHT22;66214;51.302;17.068;2024-03-08T13:23:55;20.71;27.80
77218;DHT22;66214;51.302;17.068;2024-03-08T13:26:41;20.59;28.54
77218;DHT22;66214;51.302;17.068;2024-03-08T13:29:32;20.38;28.89
77218;DHT22;66214;51.302;17.068;2024-03-08T13:32:03;20.45;29.55
77218;DHT22;66214;51.302;17.068;2024-03-08T13:34:37;20.79;29.19
77218;DHT22;66214;51.302;17.068;2024-03-08T13:37:09;20.49;27.83
77218;DHT22;66214;51.302;17.068;2024-03-08T13:39:49;20.31;28.80
77218;DHT22;66214;51.302;17.068;2024-03-08T13:42:18;20.41;29.46
77218;DHT22;66214;51.302;17.068;2024-03-08T13:44:51;20.56;29.01
77218;DHT22;66214;51.302;17.068;2024-03-08T13:47:21;20.51;29.32
77218;DHT22;66214;51.302;17.068;2024-03-08T13:49:51;20.71;28.85
77218;DHT22;66214;51.302;17.068;2024-03-08T13:52:22;20.22;29.27
77218;DHT22;66214;51.302;17.068;2024-03-08T13:54:53;18.94;30.50
77218;DHT22;66214;51.302;17.068;2024-03-08T13:57:25;17.51;31.40
77218;DHT22;66214;51.302;17.068;2024-03-08T13:59:58;16.19;32.66
77218;DHT22;66214;51.302;17.068;2024-03-08T14:03:58;14.54;34.76
77218;DHT22;66214;51.302;17.068;2024-03-08T14:06:28;13.76;35.98
77218;DHT22;66214;51.302;17.068;2024-03-08T14:08:58;13.03;37.40
77218;DHT22;66214;51.302;17.068;2024-03-08T14:14:24;12.06;38.41
77218;DHT22;66214;51.302;17.068;2024-03-08T14:17:18;11.47;39.84
77218;DHT22;66214;51.302;17.068;2024-03-08T14:19:48;10.97;40.79
77218;DHT22;66214;51.302;17.068;2024-03-08T14:22:18;10.53;41.76
77218;DHT22;66214;51.302;17.068;2024-03-08T14:24:48;10.08;42.66
77218;DHT22;66214;51.302;17.068;2024-03-08T14:27:17;9.79;42.89
77218;DHT22;66214;51.302;17.068;2024-03-08T14:29:49;9.62;43.09
77218;DHT22;66214;51.302;17.068;2024-03-08T14:32:18;9.45;43.75
77218;DHT22;66214;51.302;17.068;2024-03-08T14:34:51;9.29;43.65
77218;DHT22;66214;51.302;17.068;2024-03-08T14:37:24;9.20;43.44
77218;DHT22;66214;51.302;17.068;2024-03-08T14:39:57;9.18;43.38
77218;DHT22;66214;51.302;17.068;2024-03-08T14:42:37;9.18;43.95
77218;DHT22;66214;51.302;17.068;2024-03-08T14:45:33;9.11;43.97
77218;DHT22;66214;51.302;17.068;2024-03-08T14:48:15;9.01;44.50
77218;DHT22;66214;51.302;17.068;2024-03-08T14:50:45;8.83;45.69
77218;DHT22;66214;51.302;17.068;2024-03-08T14:53:20;8.68;46.18
77218;DHT22;66214;51.302;17.068;2024-03-08T14:55:50;8.62;45.82
77218;DHT22;66214;51.302;17.068;2024-03-08T14:58:31;8.59;45.92
77218;DHT22;66214;51.302;17.068;2024-03-08T15:01:11;8.51;46.86
77218;DHT22;66214;51.302;17.068;2024-03-08T15:04:11;8.37;47.30
77218;DHT22;66214;51.302;17.068;2024-03-08T15:06:53;8.34;46.68
77218;DHT22;66214;51.302;17.068;2024-03-08T15:09:44;8.29;47.12
77218;DHT22;66214;51.302;17.068;2024-03-08T15:12:14;8.27;46.76
77218;DHT22;66214;51.302;17.068;2024-03-08T15:14:48;8.26;47.41
77218;DHT22;66214;51.302;17.068;2024-03-08T15:17:41;8.25;47.53
77218;DHT22;66214;51.302;17.068;2024-03-08T15:20:13;8.23;48.43
77218;DHT22;66214;51.302;17.068;2024-03-08T15:23:05;8.25;47.83
77218;DHT22;66214;51.302;17.068;2024-03-08T15:25:44;8.19;49.32
77218;DHT22;66214;51.302;17.068;2024-03-08T15:31:22;8.16;48.74
77218;DHT22;66214;51.302;17.068;2024-03-08T15:37:20;10.31;46.04
77218;DHT22;66214;51.302;17.068;2024-03-08T15:40:16;11.34;44.47
77218;DHT22;66214;51.302;17.068;2024-03-08T15:43:05;11.49;44.24
77218;DHT22;66214;51.302;17.068;2024-03-08T15:49:25;11.22;44.88
77218;DHT22;66214;51.302;17.068;2024-03-08T15:51:56;11.01;44.99
77218;DHT22;66214;51.302;17.068;2024-03-08T15:54:30;10.94;45.00
77218;DHT22;66214;51.302;17.068;2024-03-08T15:57:01;10.85;45.00
77218;DHT22;66214;51.302;17.068;2024-03-08T16:00:10;10.90;45.00
77218;DHT22;66214;51.302;17.068;2024-03-08T16:03:33;10.75;44.91
77218;DHT22;66214;51.302;17.068;2024-03-08T16:06:31;10.35;45.46
77218;DHT22;66214;51.302;17.068;2024-03-08T16:09:19;9.96;46.01
77218;DHT22;66214;51.302;17.068;2024-03-08T16:11:49;9.55;46.58
77218;DHT22;66214;51.302;17.068;2024-03-08T16:14:39;9.16;47.14
77218;DHT22;66214;51.302;17.068;2024-03-08T16:17:13;8.80;47.74
77218;DHT22;66214;51.302;17.068;2024-03-08T16:19:59;8.52;48.42
77218;DHT22;66214;51.302;17.068;2024-03-08T16:22:51;8.21;48.55
77218;DHT22;66214;51.302;17.068;2024-03-08T16:25:22;8.01;48.92
77218;DHT22;66214;51.302;17.068;2024-03-08T16:28:17;7.76;49.63
77218;DHT22;66214;51.302;17.068;2024-03-08T16:31:04;7.55;49.75
77218;DHT22;66214;51.302;17.068;2024-03-08T16:33:53;7.34;49.88
77218;DHT22;66214;51.302;17.068;2024-03-08T16:36:36;7.18;50.19
77218;DHT22;66214;51.302;17.068;2024-03-08T16:39:18;7.00;50.61
77218;DHT22;66214;51.302;17.068;2024-03-08T16:41:49;6.85;50.84
77218;DHT22;66214;51.302;17.068;2024-03-08T16:44:22;6.71;51.41
77218;DHT22;66214;51.302;17.068;2024-03-08T16:50:18;6.35;51.84
77218;DHT22;66214;51.302;17.068;2024-03-08T16:53:20;6.17;52.55
77218;DHT22;66214;51.302;17.068;2024-03-08T16:56:12;6.03;52.57
77218;DHT22;66214;51.302;17.068;2024-03-08T16:58:48;5.91;52.77
77218;DHT22;66214;51.302;17.068;2024-03-08T17:04:16;5.68;53.24
77218;DHT22;66214;51.302;17.068;2024-03-08T17:06:55;5.57;53.28
77218;DHT22;66214;51.302;17.068;2024-03-08T17:10:10;5.42;53.69
77218;DHT22;66214;51.302;17.068;2024-03-08T17:13:06;5.30;54.30
77218;DHT22;66214;51.302;17.068;2024-03-08T17:15:51;5.21;54.46
77218;DHT22;66214;51.302;17.068;2024-03-08T17:18:50;5.12;54.47
77218;DHT22;66214;51.302;17.068;2024-03-08T17:21:30;5.03;54.68
77218;DHT22;66214;51.302;17.068;2024-03-08T17:24:12;4.93;54.85
77218;DHT22;66214;51.302;17.068;2024-03-08T17:27:27;4.81;54.98
77218;DHT22;66214;51.302;17.068;2024-03-08T17:33:32;4.65;55.64
77218;DHT22;66214;51.302;17.068;2024-03-08T17:36:14;4.56;55.86
77218;DHT22;66214;51.302;17.068;2024-03-08T17:39:04;4.47;55.98
77218;DHT22;66214;51.302;17.068;2024-03-08T17:42:25;4.41;56.49
77218;DHT22;66214;51.302;17.068;2024-03-08T17:45:09;4.37;56.35
77218;DHT22;66214;51.302;17.068;2024-03-08T17:47:55;4.30;56.47
77218;DHT22;66214;51.302;17.068;2024-03-08T17:50:53;4.23;56.55
77218;DHT22;66214;51.302;17.068;2024-03-08T17:53:37;4.16;56.59
77218;DHT22;66214;51.302;17.068;2024-03-08T17:56:27;4.09;56.79
77218;DHT22;66214;51.302;17.068;2024-03-08T17:59:07;4.01;57.18
77218;DHT22;66214;51.302;17.068;2024-03-08T18:02:00;3.93;57.07
77218;DHT22;66214;51.302;17.068;2024-03-08T18:04:46;3.86;57.16
77218;DHT22;66214;51.302;17.068;2024-03-08T18:14:30;3.73;58.29
77218;DHT22;66214;51.302;17.068;2024-03-08T18:17:36;3.69;57.90
77218;DHT22;66214;51.302;17.068;2024-03-08T18:20:47;3.68;58.84
77218;DHT22;66214;51.302;17.068;2024-03-08T18:24:03;3.66;58.69
77218;DHT22;66214;51.302;17.068;2024-03-08T18:26:40;3.60;58.73
77218;DHT22;66214;51.302;17.068;2024-03-08T18:29:35;3.55;58.83
77218;DHT22;66214;51.302;17.068;2024-03-08T18:32:47;3.49;58.95
77218;DHT22;66214;51.302;17.068;2024-03-08T18:35:37;3.46;59.27